Time;durP1;ratioP1;P1;durP2;ratioP2;P2;SDS_P1;SDS_P2;PMS_P1;PMS_P2;Temp;Humidity;BMP_temperature;BMP_pressure;BME280_temperature;BME280_humidity;BME280_pressure;Samples;Min_cycle;Max_cycle;Signal;HPM_P1;HPM_P2
2022/04/09 00:01:29;;;;;;;11.50;11.10;;;0.80;99.90;;;;;;5055180;28;20230;-83
2022/04/09 00:04:00;;;;;;;11.73;11.33;;;0.80;99.90;;;;;;5062723;28;20220;-82
2022/04/09 00:06:27;;;;;;;11.47;11.07;;;0.80;99.90;;;;;;5046090;28;20244;-82
2022/04/09 00:08:56;;;;;;;11.57;11.17;;;0.90;99.90;;;;;;5055658;28;20239;-83
2022/04/09 00:11:24;;;;;;;11.60;11.20;;;0.90;99.90;;;;;;5052657;28;20297;-83
2022/04/09 00:13:52;;;;;;;11.77;11.37;;;0.80;99.90;;;;;;5043258;28;20220;-82
2022/04/09 00:16:20;;;;;;;11.60;11.20;;;0.80;99.90;;;;;;5043598;28;20231;-83
2022/04/09 00:18:48;;;;;;;11.87;11.47;;;0.90;99.90;;;;;;5051438;28;20238;-82
2022/04/09 00:21:17;;;;;;;12.10;11.70;;;0.80;99.90;;;;;;5042979;28;20227;-83
2022/04/09 00:23:45;;;;;;;12.27;11.87;;;0.80;99.90;;;;;;5042289;28;20224;-83
2022/04/09 00:26:14;;;;;;;12.10;11.70;;;0.80;99.90;;;;;;5042901;28;20373;-83
2022/04/09 00:28:43;;;;;;;11.73;11.33;;;0.80;99.90;;;;;;5042762;28;20243;-83
2022/04/09 00:31:13;;;;;;;12.10;11.70;;;0.80;99.90;;;;;;5056297;28;20227;-83
2022/04/09 00:33:42;;;;;;;12.00;11.60;;;0.80;99.90;;;;;;5061680;28;20278;-83
2022/04/09 00:36:09;;;;;;;11.77;11.37;;;0.80;99.90;;;;;;5062126;28;20258;-83
2022/04/09 00:38:43;;;;;;;12.10;11.70;;;0.80;99.90;;;;;;5067103;28;20239;-83
2022/04/09 00:41:11;;;;;;;12.10;11.70;;;0.80;99.90;;;;;;5062320;28;20724;-83
2022/04/09 00:43:41;;;;;;;12.00;11.60;;;0.80;99.90;;;;;;5063312;28;20230;-82
2022/04/09 00:46:09;;;;;;;12.00;11.60;;;0.80;99.90;;;;;;5063510;28;20250;-83
2022/04/09 00:48:39;;;;;;;12.00;11.60;;;0.80;99.90;;;;;;5052986;28;20265;-83
2022/04/09 00:51:08;;;;;;;12.33;11.93;;;0.80;99.90;;;;;;5042309;28;20239;-82
2022/04/09 00:53:41;;;;;;;11.93;11.53;;;0.80;99.90;;;;;;5041795;28;20226;-83
2022/04/09 00:56:16;;;;;;;12.00;11.60;;;0.80;99.90;;;;;;5042093;28;20236;-83
2022/04/09 00:58:57;;;;;;;12.00;11.60;;;0.80;99.90;;;;;;5041902;28;20245;-83
2022/04/09 01:01:32;;;;;;;11.70;11.30;;;0.80;99.90;;;;;;5041365;28;20254;-81
2022/04/09 01:04:02;;;;;;;11.83;11.43;;;0.80;99.90;;;;;;5041944;28;20285;-83
2022/04/09 01:06:31;;;;;;;11.90;11.50;;;0.80;99.90;;;;;;5040981;28;21034;-82
2022/04/09 01:09:09;;;;;;;11.93;11.53;;;0.90;99.90;;;;;;5059017;28;20227;-83
2022/04/09 01:11:40;;;;;;;12.20;11.80;;;0.90;99.90;;;;;;5057820;28;20227;-82
2022/04/09 01:14:08;;;;;;;12.00;11.60;;;0.90;99.90;;;;;;5052673;28;20227;-82
2022/04/09 01:16:38;;;;;;;12.10;11.70;;;0.90;99.90;;;;;;5047810;28;20235;-83
2022/04/09 01:19:07;;;;;;;11.90;11.50;;;1.00;99.90;;;;;;5044139;28;20235;-83
2022/04/09 01:21:37;;;;;;;11.73;11.33;;;1.00;99.90;;;;;;5042273;28;20234;-83
2022/04/09 01:24:21;;;;;;;11.77;11.37;;;1.00;99.90;;;;;;5054474;28;20219;-82
2022/04/09 01:26:53;;;;;;;11.93;11.53;;;1.00;99.90;;;;;;5057086;28;20231;-82
2022/04/09 01:29:25;;;;;;;11.87;11.47;;;1.00;99.90;;;;;;5063792;28;20250;-82
2022/04/09 01:31:53;;;;;;;11.73;11.33;;;1.00;99.90;;;;;;5045139;28;20252;-83
2022/04/09 01:34:23;;;;;;;11.93;11.53;;;1.10;99.90;;;;;;5042647;28;20207;-82
2022/04/09 01:36:52;;;;;;;12.20;11.80;;;1.10;99.90;;;;;;5042115;28;20317;-83
2022/04/09 01:39:22;;;;;;;12.10;11.70;;;1.10;99.90;;;;;;5041655;28;20239;-83
2022/04/09 01:41:51;;;;;;;12.10;11.70;;;1.10;99.90;;;;;;5040085;28;20227;-83
2022/04/09 01:44:21;;;;;;;11.93;11.53;;;1.10;99.90;;;;;;5040777;28;20235;-83
2022/04/09 01:46:50;;;;;;;12.03;11.63;;;1.20;99.90;;;;;;5040564;28;20243;-83
2022/04/09 01:49:18;;;;;;;11.83;11.43;;;1.20;99.90;;;;;;5040370;28;20235;-83
2022/04/09 01:51:50;;;;;;;11.93;11.53;;;1.20;99.90;;;;;;5040250;28;20298;-83
2022/04/09 01:54:18;;;;;;;11.93;11.53;;;1.20;99.90;;;;;;5040203;28;20223;-83
2022/04/09 01:56:57;;;;;;;11.87;11.47;;;1.20;99.90;;;;;;5039682;28;20301;-83
2022/04/09 01:59:26;;;;;;;12.03;11.63;;;1.30;99.90;;;;;;5039708;28;20281;-83
2022/04/09 02:01:56;;;;;;;12.20;11.80;;;1.30;99.90;;;;;;5041680;28;20254;-83
2022/04/09 02:04:26;;;;;;;11.63;11.23;;;1.30;99.90;;;;;;5041432;28;20232;-83
2022/04/09 02:06:55;;;;;;;11.90;11.50;;;1.30;99.90;;;;;;5039922;28;20302;-83
2022/04/09 02:09:24;;;;;;;12.00;11.60;;;1.30;99.90;;;;;;5040094;28;20246;-83
2022/04/09 02:12:02;;;;;;;11.77;11.37;;;1.30;99.90;;;;;;5039299;28;21066;-83
2022/04/09 02:14:31;;;;;;;11.90;11.50;;;1.40;99.90;;;;;;5038965;28;20231;-83
2022/04/09 02:17:00;;;;;;;11.93;11.53;;;1.40;99.90;;;;;;5038825;28;20254;-83
2022/04/09 02:19:30;;;;;;;11.73;11.33;;;1.50;99.90;;;;;;5038885;28;20330;-83
2022/04/09 02:21:58;;;;;;;11.87;11.47;;;1.50;99.90;;;;;;5039152;28;20236;-82
2022/04/09 02:24:26;;;;;;;12.10;11.70;;;1.50;99.90;;;;;;5038778;28;20216;-83
2022/04/09 02:27:00;;;;;;;11.90;11.50;;;1.60;99.90;;;;;;5038494;28;20239;-82
2022/04/09 02:29:28;;;;;;;11.80;11.40;;;1.60;99.90;;;;;;5038041;28;20262;-82
2022/04/09 02:31:56;;;;;;;12.03;11.63;;;1.60;99.90;;;;;;5038835;28;20247;-83
2022/04/09 02:34:25;;;;;;;12.00;11.60;;;1.60;99.90;;;;;;5038924;28;20228;-83
2022/04/09 02:36:57;;;;;;;12.10;11.70;;;1.50;99.90;;;;;;5038576;28;20232;-82
2022/04/09 02:39:27;;;;;;;12.00;11.60;;;1.50;99.90;;;;;;5038520;28;20239;-82
2022/04/09 02:41:58;;;;;;;11.97;11.57;;;1.50;99.90;;;;;;5038643;28;20230;-82
2022/04/09 02:44:26;;;;;;;12.70;12.20;;;1.40;99.90;;;;;;5039177;28;20246;-82
2022/04/09 02:46:53;;;;;;;12.53;12.13;;;1.50;99.90;;;;;;5039001;28;20282;-83
2022/04/09 02:49:24;;;;;;;12.80;12.30;;;1.50;99.90;;;;;;5039085;28;20290;-82
2022/04/09 02:51:52;;;;;;;12.33;11.93;;;1.40;99.90;;;;;;5038679;28;20239;-82
2022/04/09 02:54:20;;;;;;;12.33;11.93;;;1.40;99.90;;;;;;5038908;28;20719;-83
2022/04/09 02:56:53;;;;;;;12.00;11.60;;;1.40;99.90;;;;;;5038732;28;20227;-83
2022/04/09 02:59:23;;;;;;;12.00;11.60;;;1.50;99.90;;;;;;5039096;28;20243;-82
2022/04/09 03:01:51;;;;;;;12.30;11.90;;;1.40;99.90;;;;;;5038247;28;20255;-82
2022/04/09 03:04:19;;;;;;;12.17;11.77;;;1.50;99.90;;;;;;5038608;28;20286;-81
2022/04/09 03:06:51;;;;;;;12.10;11.70;;;1.40;99.90;;;;;;5038542;28;20670;-83
2022/04/09 03:09:20;;;;;;;12.20;11.80;;;1.50;99.90;;;;;;5047245;28;20250;-80
2022/04/09 03:11:50;;;;;;;12.23;11.83;;;1.50;99.90;;;;;;5061207;28;20247;-82
2022/04/09 03:14:20;;;;;;;12.37;11.97;;;1.50;99.90;;;;;;5042200;28;20322;-83
2022/04/09 03:16:50;;;;;;;12.23;11.83;;;1.50;99.90;;;;;;5041723;28;20265;-83
2022/04/09 03:19:18;;;;;;;12.40;12.00;;;1.50;99.90;;;;;;5041506;28;20235;-82
2022/04/09 03:21:46;;;;;;;12.30;11.90;;;1.50;99.90;;;;;;5041531;28;20231;-82
2022/04/09 03:24:16;;;;;;;11.80;11.40;;;1.50;99.90;;;;;;5041227;28;20286;-82
2022/04/09 03:26:45;;;;;;;12.00;11.60;;;1.60;99.90;;;;;;5040862;28;20232;-82
2022/04/09 03:29:17;;;;;;;12.00;11.60;;;1.50;99.90;;;;;;5040532;28;20278;-82
2022/04/09 03:31:46;;;;;;;11.93;11.53;;;1.60;99.90;;;;;;5041020;28;20224;-82
2022/04/09 03:34:24;;;;;;;11.77;11.37;;;1.50;99.90;;;;;;5041459;28;20224;-82
2022/04/09 03:36:52;;;;;;;11.90;11.50;;;1.60;99.90;;;;;;5043785;28;20230;-82
2022/04/09 03:39:24;;;;;;;11.70;11.30;;;1.50;99.90;;;;;;5054422;28;20247;-82
2022/04/09 03:41:52;;;;;;;11.50;11.10;;;1.50;99.90;;;;;;5050982;28;20219;-82
2022/04/09 03:44:22;;;;;;;11.40;11.00;;;1.60;99.90;;;;;;5044063;28;20228;-82
2022/04/09 03:46:49;;;;;;;11.67;11.27;;;1.60;99.90;;;;;;5045055;28;20232;-82
2022/04/09 03:49:23;;;;;;;11.70;11.30;;;1.60;99.90;;;;;;5046101;28;20274;-82
2022/04/09 03:51:51;;;;;;;11.80;11.40;;;1.60;99.90;;;;;;5043426;28;20232;-82
2022/04/09 03:54:20;;;;;;;11.60;11.20;;;1.60;99.90;;;;;;5042841;28;20282;-82
2022/04/09 03:56:49;;;;;;;11.70;11.30;;;1.60;99.90;;;;;;5041133;28;20290;-83
2022/04/09 03:59:19;;;;;;;11.70;11.30;;;1.60;99.90;;;;;;5041587;28;20295;-82
2022/04/09 04:01:49;;;;;;;11.53;11.13;;;1.60;99.90;;;;;;5041023;28;20238;-82
2022/04/09 04:04:20;;;;;;;11.60;11.20;;;1.60;99.90;;;;;;5045757;28;20286;-82
2022/04/09 04:06:48;;;;;;;11.60;11.20;;;1.60;99.90;;;;;;5051400;28;20283;-83
2022/04/09 04:09:16;;;;;;;11.60;11.20;;;1.70;99.90;;;;;;5050306;28;20259;-82
2022/04/09 04:11:46;;;;;;;11.80;11.40;;;1.60;99.90;;;;;;5050884;28;20224;-82
2022/04/09 04:14:15;;;;;;;11.57;11.17;;;1.60;99.90;;;;;;5051156;28;20226;-83
2022/04/09 04:16:44;;;;;;;11.60;11.20;;;1.60;99.90;;;;;;5052297;28;20294;-82
2022/04/09 04:19:14;;;;;;;11.90;11.50;;;1.70;99.90;;;;;;5046443;28;20235;-81
2022/04/09 04:21:55;;;;;;;12.17;11.77;;;1.60;99.90;;;;;;5043250;28;20294;-82
2022/04/09 04:24:24;;;;;;;11.70;11.30;;;1.60;99.90;;;;;;5044597;28;20227;-82
2022/04/09 04:26:52;;;;;;;11.90;11.50;;;1.60;99.90;;;;;;5044038;28;20295;-82
2022/04/09 04:29:21;;;;;;;11.83;11.43;;;1.70;99.90;;;;;;5043669;28;20250;-83
2022/04/09 04:31:50;;;;;;;11.80;11.40;;;1.70;99.90;;;;;;5045163;28;20220;-82
2022/04/09 04:34:19;;;;;;;11.80;11.40;;;1.70;99.90;;;;;;5047796;28;20297;-82
2022/04/09 04:36:51;;;;;;;11.90;11.50;;;1.70;99.90;;;;;;5048228;28;20227;-83
2022/04/09 04:39:19;;;;;;;12.10;11.70;;;1.70;99.90;;;;;;5051331;28;20298;-82
2022/04/09 04:41:49;;;;;;;11.90;11.50;;;1.70;99.90;;;;;;5046578;28;20224;-82
2022/04/09 04:44:18;;;;;;;11.93;11.53;;;1.70;99.90;;;;;;5043382;28;20235;-82
2022/04/09 04:46:48;;;;;;;11.90;11.50;;;1.70;99.90;;;;;;5043436;28;20258;-82
2022/04/09 04:49:17;;;;;;;12.00;11.60;;;1.60;99.90;;;;;;5042481;28;20246;-82
2022/04/09 04:51:46;;;;;;;12.20;11.80;;;1.70;99.90;;;;;;5042734;28;20239;-82
2022/04/09 04:54:17;;;;;;;11.90;11.50;;;1.70;99.90;;;;;;5042369;28;20223;-82
2022/04/09 04:56:45;;;;;;;12.00;11.60;;;1.70;99.90;;;;;;5042230;28;20235;-82
2022/04/09 04:59:15;;;;;;;12.30;11.90;;;1.70;99.90;;;;;;5041138;28;20236;-81
2022/04/09 05:01:43;;;;;;;12.10;11.70;;;1.70;99.90;;;;;;5041620;28;20227;-82
2022/04/09 05:04:13;;;;;;;11.70;11.30;;;1.70;99.90;;;;;;5041305;28;20286;-82
2022/04/09 05:06:43;;;;;;;11.80;11.40;;;1.70;99.90;;;;;;5042210;28;20226;-82
2022/04/09 05:09:13;;;;;;;11.63;11.23;;;1.70;99.90;;;;;;5042125;28;20737;-81
2022/04/09 05:11:48;;;;;;;11.90;11.50;;;1.70;99.90;;;;;;5042503;28;20230;-82
2022/04/09 05:14:17;;;;;;;11.63;11.23;;;1.70;99.90;;;;;;5041708;28;20234;-81
2022/04/09 05:16:45;;;;;;;11.53;11.13;;;1.70;99.90;;;;;;5042010;28;20230;-82
2022/04/09 05:19:12;;;;;;;11.90;11.50;;;1.70;99.90;;;;;;5042050;28;20235;-82
2022/04/09 05:21:40;;;;;;;11.90;11.50;;;1.70;99.90;;;;;;5042881;28;20239;-82
2022/04/09 05:24:09;;;;;;;11.80;11.40;;;1.70;99.90;;;;;;5043089;28;20258;-82
2022/04/09 05:26:38;;;;;;;12.00;11.60;;;1.70;99.90;;;;;;5042450;28;20231;-83
2022/04/09 05:29:09;;;;;;;11.67;11.27;;;1.70;99.90;;;;;;5095374;22;20239;-81
2022/04/09 05:31:42;;;;;;;11.60;11.20;;;1.70;99.90;;;;;;5035138;28;21133;-81
2022/04/09 05:34:17;;;;;;;11.53;11.13;;;1.80;99.90;;;;;;5028382;28;21007;-82
2022/04/09 05:36:47;;;;;;;11.80;11.40;;;1.80;99.90;;;;;;5022852;28;20239;-81
2022/04/09 05:42:02;;;;;;;11.63;11.23;;;1.80;99.90;;;;;;5015829;28;20228;-81
2022/04/09 05:44:40;;;;;;;11.80;11.40;;;1.90;99.90;;;;;;5022809;28;20228;-81
2022/04/09 05:47:13;;;;;;;11.80;11.40;;;1.90;99.90;;;;;;5023757;28;20266;-81
2022/04/09 05:49:41;;;;;;;11.83;11.43;;;1.90;99.90;;;;;;5023258;28;20236;-81
2022/04/09 05:52:09;;;;;;;11.63;11.23;;;1.90;99.90;;;;;;5022616;28;20235;-82
2022/04/09 05:54:38;;;;;;;11.70;11.30;;;1.90;99.90;;;;;;5018978;28;20247;-81
2022/04/09 05:57:09;;;;;;;11.80;11.40;;;1.90;99.90;;;;;;5008909;28;20228;-81
2022/04/09 06:02:24;;;;;;;11.90;11.50;;;2.00;99.90;;;;;;5001926;28;20232;-81
2022/04/09 06:04:54;;;;;;;11.97;11.57;;;2.00;99.90;;;;;;5002724;28;20225;-81
2022/04/09 06:07:24;;;;;;;11.70;11.30;;;2.00;99.90;;;;;;5002185;28;20241;-81
2022/04/09 06:09:53;;;;;;;11.80;11.40;;;2.00;99.90;;;;;;5002796;28;20251;-81
2022/04/09 06:12:23;;;;;;;11.77;11.37;;;2.10;99.90;;;;;;5002663;28;20313;-81
2022/04/09 06:15:01;;;;;;;11.80;11.40;;;2.10;99.90;;;;;;5002347;28;20225;-81
2022/04/09 06:17:31;;;;;;;11.90;11.50;;;2.10;99.90;;;;;;5004499;28;20242;-81
2022/04/09 06:20:01;;;;;;;11.60;11.20;;;2.20;99.90;;;;;;5002356;28;20243;-81
2022/04/09 06:22:29;;;;;;;12.10;11.70;;;2.20;99.90;;;;;;5003191;28;20236;-81
2022/04/09 06:25:02;;;;;;;11.53;11.13;;;2.30;99.90;;;;;;5001962;28;20755;-81
2022/04/09 06:27:32;;;;;;;11.73;11.33;;;2.30;99.90;;;;;;5002472;28;20239;-81
2022/04/09 06:30:06;;;;;;;11.97;11.57;;;2.40;99.90;;;;;;5002427;28;20303;-81
2022/04/09 06:32:38;;;;;;;11.90;11.50;;;2.40;99.90;;;;;;5002035;28;20256;-81
2022/04/09 06:35:07;;;;;;;11.90;11.50;;;2.40;99.90;;;;;;5001517;28;20228;-81
2022/04/09 06:37:45;;;;;;;12.10;11.70;;;2.40;99.90;;;;;;5002535;28;20236;-81
2022/04/09 06:40:17;;;;;;;11.67;11.27;;;2.50;99.90;;;;;;5001869;28;20267;-81
2022/04/09 06:42:45;;;;;;;11.73;11.33;;;2.50;99.90;;;;;;5002703;28;20237;-81
2022/04/09 06:45:15;;;;;;;11.73;11.33;;;2.50;99.90;;;;;;5001759;28;20253;-80
2022/04/09 06:47:42;;;;;;;11.90;11.50;;;2.60;99.90;;;;;;5001960;28;20228;-81
2022/04/09 06:50:13;;;;;;;11.90;11.50;;;2.60;99.90;;;;;;5001252;28;20240;-81
2022/04/09 06:52:41;;;;;;;12.07;11.67;;;2.60;99.90;;;;;;5001760;28;20232;-81
2022/04/09 06:55:11;;;;;;;11.83;11.43;;;2.70;99.90;;;;;;5004758;28;20221;-80
2022/04/09 06:57:39;;;;;;;11.77;11.37;;;2.70;99.90;;;;;;5003815;28;20260;-81
2022/04/09 07:00:54;;;;;;;12.13;11.73;;;2.80;99.90;;;;;;5002694;28;20240;-81
2022/04/09 07:03:24;;;;;;;11.80;11.40;;;2.90;99.90;;;;;;5000931;28;20221;-80
2022/04/09 07:05:52;;;;;;;11.53;11.13;;;3.00;99.90;;;;;;5001783;28;20239;-80
2022/04/09 07:08:20;;;;;;;11.50;11.10;;;3.00;99.90;;;;;;5002384;28;20237;-80
2022/04/09 07:10:52;;;;;;;11.10;10.73;;;3.00;99.90;;;;;;5002041;28;20252;-81
2022/04/09 07:13:28;;;;;;;11.67;11.27;;;3.00;99.90;;;;;;5002412;28;20240;-81
2022/04/09 07:15:58;;;;;;;11.77;11.37;;;3.00;99.90;;;;;;5002825;28;20227;-81
2022/04/09 07:18:30;;;;;;;11.80;11.40;;;3.10;99.90;;;;;;5008192;28;20232;-81
2022/04/09 07:20:58;;;;;;;11.53;11.13;;;3.10;99.90;;;;;;5013707;28;20237;-81
2022/04/09 07:23:25;;;;;;;11.57;11.17;;;3.20;99.90;;;;;;5010822;28;20229;-81
2022/04/09 07:25:55;;;;;;;11.07;10.77;;;3.20;99.90;;;;;;5014968;28;20217;-81
2022/04/09 07:31:13;;;;;;;11.33;11.00;;;3.30;99.90;;;;;;5015036;28;20208;-80
2022/04/09 07:33:45;;;;;;;10.90;10.60;;;3.30;99.90;;;;;;5017654;28;20260;-81
2022/04/09 07:36:21;;;;;;;11.07;10.77;;;3.40;99.90;;;;;;5017671;28;20209;-81
2022/04/09 07:38:50;;;;;;;11.20;10.90;;;3.50;99.90;;;;;;5017198;28;20236;-81
2022/04/09 07:41:20;;;;;;;11.40;11.10;;;3.50;99.90;;;;;;5012168;28;20447;-84
2022/04/09 07:43:49;;;;;;;10.90;10.60;;;3.60;99.90;;;;;;5010458;28;20233;-85
2022/04/09 07:46:19;;;;;;;11.00;10.70;;;3.70;99.90;;;;;;5008613;28;20237;-84
2022/04/09 07:48:52;;;;;;;10.87;10.57;;;3.80;99.90;;;;;;5005963;28;20236;-83
2022/04/09 07:51:20;;;;;;;11.20;10.90;;;3.90;99.90;;;;;;5006045;28;20236;-85
2022/04/09 07:54:07;;;;;;;11.00;10.70;;;4.00;99.90;;;;;;5007245;28;20218;-84
2022/04/09 07:56:36;;;;;;;11.10;10.80;;;4.00;99.90;;;;;;5008419;28;20217;-85
2022/04/09 07:59:06;;;;;;;10.60;10.30;;;4.10;99.90;;;;;;5014624;28;20243;-85
2022/04/09 08:01:34;;;;;;;10.67;10.37;;;4.10;99.90;;;;;;5015957;28;20227;-85
2022/04/09 08:08:01;;;;;;;11.00;10.70;;;4.10;99.90;;;;;;4980628;28;20223;-80
2022/04/09 08:10:30;;;;;;;10.83;10.53;;;4.20;99.90;;;;;;5005548;28;20252;-83
2022/04/09 08:13:00;;;;;;;10.80;10.50;;;4.40;99.90;;;;;;5005891;28;20236;-82
2022/04/09 08:15:28;;;;;;;10.50;10.20;;;4.40;99.90;;;;;;5005142;28;20220;-82
2022/04/09 08:17:58;;;;;;;10.67;10.37;;;4.20;99.90;;;;;;5005474;28;20248;-82
2022/04/09 08:20:27;;;;;;;10.37;10.07;;;4.20;99.90;;;;;;5005448;28;20241;-81
2022/04/09 08:25:43;;;;;;;10.00;9.70;;;4.50;99.90;;;;;;5004719;28;20225;-81
2022/04/09 08:28:13;;;;;;;9.70;9.40;;;4.70;99.90;;;;;;5005253;28;20209;-82
2022/04/09 08:30:43;;;;;;;10.07;9.77;;;4.70;99.90;;;;;;5004402;28;20303;-82
2022/04/09 08:33:15;;;;;;;10.30;10.00;;;4.80;99.90;;;;;;5004782;28;20233;-82
2022/04/09 08:41:15;;;;;;;11.50;11.10;;;5.30;99.90;;;;;;5004023;28;20235;-82
2022/04/09 08:43:54;;;;;;;10.10;9.80;;;5.30;99.90;;;;;;5004696;28;20229;-83
2022/04/09 08:46:23;;;;;;;9.70;9.40;;;5.20;99.90;;;;;;5005097;28;20288;-83
2022/04/09 08:48:52;;;;;;;9.70;9.40;;;5.30;99.90;;;;;;5005145;28;20240;-83
2022/04/09 08:51:22;;;;;;;9.90;9.60;;;5.30;99.90;;;;;;5004456;28;20239;-83
2022/04/09 08:54:02;;;;;;;9.77;9.47;;;5.30;99.90;;;;;;5003683;28;20236;-83
2022/04/09 08:56:31;;;;;;;9.70;9.40;;;5.30;99.90;;;;;;5004739;28;20227;-82
2022/04/09 08:58:59;;;;;;;9.53;9.23;;;5.30;99.90;;;;;;5004172;28;20241;-83
2022/04/09 09:01:28;;;;;;;9.83;9.53;;;5.30;99.90;;;;;;5019578;28;20291;-83
2022/04/09 09:04:01;;;;;;;9.90;9.60;;;5.20;99.90;;;;;;5015627;28;20295;-83
2022/04/09 09:06:38;;;;;;;9.80;9.50;;;5.30;99.90;;;;;;5024826;28;20255;-83
2022/04/09 09:09:14;;;;;;;9.53;9.23;;;5.50;99.90;;;;;;5023047;28;20330;-84
2022/04/09 09:11:52;;;;;;;9.90;9.60;;;5.40;99.90;;;;;;5023978;28;20236;-83
2022/04/09 09:14:30;;;;;;;10.00;9.70;;;5.50;99.90;;;;;;5025256;28;20216;-84
2022/04/09 09:17:11;;;;;;;10.60;10.30;;;5.90;99.90;;;;;;5024287;28;20235;-83
2022/04/09 09:19:47;;;;;;;10.73;10.43;;;6.00;99.90;;;;;;5023733;28;20220;-83
2022/04/09 09:22:16;;;;;;;10.57;10.27;;;6.10;99.90;;;;;;5019840;28;20228;-82
2022/04/09 09:25:04;;;;;;;10.30;10.00;;;5.90;99.90;;;;;;5003804;28;20232;-81
2022/04/09 09:27:35;;;;;;;10.30;10.00;;;6.00;99.90;;;;;;5004576;28;20233;-83
2022/04/09 09:30:04;;;;;;;10.10;9.80;;;6.10;99.90;;;;;;5003825;28;20241;-80
2022/04/09 09:32:44;;;;;;;9.97;9.67;;;5.90;99.90;;;;;;5003228;28;20462;-81
2022/04/09 09:35:24;;;;;;;9.87;9.57;;;5.60;99.90;;;;;;5006411;28;20255;-82
2022/04/09 09:37:51;;;;;;;10.30;10.00;;;5.50;99.90;;;;;;5005944;28;20235;-81
2022/04/09 09:40:53;;;;;;;9.90;9.60;;;5.50;99.90;;;;;;5005161;28;20252;-82
2022/04/09 09:53:50;;;;;;;10.30;10.00;;;6.20;99.90;;;;;;5008076;28;20212;-83
2022/04/09 09:57:06;;;;;;;9.67;9.37;;;6.40;99.90;;;;;;5006491;28;20302;-82
2022/04/09 10:00:03;;;;;;;10.00;9.70;;;6.20;99.90;;;;;;5008228;28;20243;-84
2022/04/09 10:06:45;;;;;;;10.00;9.70;;;6.30;99.90;;;;;;5026673;28;20236;-84
2022/04/09 10:09:23;;;;;;;9.97;9.67;;;6.20;99.90;;;;;;4983160;28;20303;-84
2022/04/09 10:13:09;;;;;;;10.20;9.90;;;6.40;99.90;;;;;;5025202;28;20216;-83
2022/04/09 10:15:50;;;;;;;9.83;9.53;;;6.60;99.90;;;;;;5024975;28;20276;-83
2022/04/09 10:18:27;;;;;;;9.77;9.47;;;6.70;99.90;;;;;;5023278;28;20224;-82
2022/04/09 10:21:23;;;;;;;10.20;9.90;;;6.80;99.90;;;;;;5023155;28;20224;-81
2022/04/09 10:27:28;;;;;;;9.80;9.50;;;7.10;99.90;;;;;;5028074;28;20220;-80
2022/04/09 10:30:53;;;;;;;9.97;9.67;;;7.20;99.90;;;;;;5032295;28;20232;-81
2022/04/09 10:33:40;;;;;;;9.90;9.60;;;7.20;99.90;;;;;;5034810;28;20252;-82
2022/04/09 10:36:12;;;;;;;10.40;10.10;;;7.40;99.90;;;;;;5033901;28;20314;-81
2022/04/09 10:38:41;;;;;;;10.30;10.00;;;7.20;99.90;;;;;;5028299;28;20282;-80
2022/04/09 10:41:35;;;;;;;10.23;9.93;;;6.90;99.90;;;;;;5022337;28;20337;-80
2022/04/09 10:44:39;;;;;;;10.20;9.90;;;6.90;99.90;;;;;;5023886;28;20242;-82
2022/04/09 10:51:15;;;;;;;10.07;9.77;;;6.90;99.90;;;;;;4987004;28;20236;-82
2022/04/09 10:53:45;;;;;;;10.10;9.80;;;7.10;99.90;;;;;;5022063;28;20228;-82
2022/04/09 10:56:20;;;;;;;10.00;9.70;;;6.80;99.90;;;;;;5022262;28;20235;-81
2022/04/09 10:59:36;;;;;;;10.20;9.90;;;6.70;99.90;;;;;;5027960;28;20290;-82
2022/04/09 11:02:04;;;;;;;9.90;9.60;;;6.70;99.90;;;;;;5021419;28;20244;-85
2022/04/09 11:04:45;;;;;;;10.00;9.70;;;7.00;99.90;;;;;;5028215;28;20239;-82
2022/04/09 11:07:21;;;;;;;9.73;9.43;;;7.30;99.90;;;;;;5023476;28;20232;-82
2022/04/09 11:10:08;;;;;;;10.10;9.80;;;7.50;99.90;;;;;;5022079;28;20298;-82
2022/04/09 11:12:46;;;;;;;10.20;9.90;;;7.70;99.90;;;;;;5022699;28;20263;-83
2022/04/09 11:15:17;;;;;;;10.03;9.73;;;7.90;99.90;;;;;;5022929;28;20220;-83
2022/04/09 11:17:54;;;;;;;10.20;9.90;;;8.10;99.90;;;;;;5009757;28;20292;-83
2022/04/09 11:20:28;;;;;;;10.10;9.80;;;8.60;99.90;;;;;;5005560;28;20355;-83
2022/04/09 11:23:12;;;;;;;10.37;10.07;;;8.70;99.90;;;;;;5007885;28;20232;-83
2022/04/09 11:31:26;;;;;;;10.03;9.73;;;8.30;99.90;;;;;;5068467;22;20302;-83
2022/04/09 11:34:04;;;;;;;10.10;9.80;;;8.00;99.90;;;;;;5049456;28;20227;-83
2022/04/09 11:36:32;;;;;;;10.03;9.73;;;8.10;99.90;;;;;;5047479;28;20323;-85
2022/04/09 11:39:11;;;;;;;10.50;10.20;;;8.30;99.90;;;;;;5039582;28;20323;-83
2022/04/09 11:41:40;;;;;;;10.40;10.10;;;8.10;99.90;;;;;;5051418;28;20242;-83
2022/04/09 11:44:09;;;;;;;10.07;9.77;;;7.90;99.90;;;;;;5040021;28;20256;-83
2022/04/09 11:46:47;;;;;;;10.00;9.70;;;7.90;99.90;;;;;;5028866;28;20232;-84
2022/04/09 11:49:18;;;;;;;10.00;9.70;;;7.60;99.90;;;;;;5022492;28;20256;-85
2022/04/09 11:51:55;;;;;;;10.00;9.70;;;7.50;99.90;;;;;;5022713;28;20273;-85
2022/04/09 11:54:33;;;;;;;10.10;9.80;;;7.30;99.90;;;;;;5022609;28;20231;-85
2022/04/09 11:57:12;;;;;;;10.00;9.70;;;7.20;99.90;;;;;;5022496;28;20247;-85
2022/04/09 11:59:41;;;;;;;10.10;9.80;;;7.50;99.90;;;;;;5023076;28;20283;-85
2022/04/09 12:02:23;;;;;;;10.50;10.20;;;7.80;99.90;;;;;;5034214;28;20228;-86
2022/04/09 12:04:52;;;;;;;10.17;9.87;;;7.90;99.90;;;;;;5036521;28;20238;-85
2022/04/09 12:07:20;;;;;;;10.50;10.20;;;8.00;99.90;;;;;;5023573;28;20231;-82
2022/04/09 12:09:51;;;;;;;10.40;10.10;;;8.30;99.90;;;;;;5023726;28;20240;-84
2022/04/09 12:12:20;;;;;;;10.20;9.90;;;8.70;99.90;;;;;;5023731;28;20228;-85
2022/04/09 12:15:00;;;;;;;10.10;9.80;;;9.00;99.90;;;;;;5022414;28;20328;-83
2022/04/09 12:17:44;;;;;;;10.33;10.03;;;8.80;99.90;;;;;;5021770;28;20299;-83
2022/04/09 12:20:32;;;;;;;10.40;10.10;;;8.60;99.90;;;;;;5021687;28;20256;-83
2022/04/09 12:23:01;;;;;;;10.20;9.90;;;9.00;99.90;;;;;;5022522;28;20287;-83
2022/04/09 12:25:47;;;;;;;10.57;10.27;;;8.90;99.90;;;;;;5021579;28;20288;-83
2022/04/09 12:28:24;;;;;;;10.37;10.07;;;9.00;99.90;;;;;;5022641;28;20227;-83
2022/04/09 12:30:56;;;;;;;10.00;9.70;;;8.70;99.90;;;;;;5020293;28;20320;-82
2022/04/09 12:33:25;;;;;;;10.10;9.80;;;8.80;99.90;;;;;;5016629;28;20338;-85
2022/04/09 12:36:11;;;;;;;10.23;9.93;;;8.60;99.90;;;;;;5021554;28;20224;-83
2022/04/09 12:38:41;;;;;;;10.23;9.93;;;8.70;99.90;;;;;;5022688;28;20220;-84
2022/04/09 12:41:12;;;;;;;10.00;9.70;;;8.60;99.90;;;;;;5021530;28;20231;-83
2022/04/09 12:43:46;;;;;;;10.13;9.83;;;8.40;99.90;;;;;;5021547;28;20227;-82
2022/04/09 12:46:18;;;;;;;10.27;9.97;;;8.30;99.90;;;;;;5023486;28;20236;-84
2022/04/09 12:49:15;;;;;;;10.10;9.80;;;8.30;99.90;;;;;;5022909;28;20291;-82
2022/04/09 12:51:42;;;;;;;10.07;9.77;;;8.40;99.90;;;;;;5024226;28;20250;-86
2022/04/09 12:54:12;;;;;;;10.60;10.30;;;8.20;99.90;;;;;;5024793;28;20247;-85
2022/04/09 12:56:44;;;;;;;10.17;9.87;;;8.20;99.90;;;;;;5001715;28;20233;-86
2022/04/09 12:59:11;;;;;;;10.23;9.93;;;8.70;99.90;;;;;;5001795;28;20217;-84
2022/04/09 13:01:39;;;;;;;9.90;9.60;;;8.90;99.90;;;;;;5002494;28;20299;-83
2022/04/09 13:04:10;;;;;;;10.33;10.03;;;9.00;99.90;;;;;;5002619;28;20228;-84
2022/04/09 13:09:35;;;;;;;10.10;9.80;;;9.50;99.90;;;;;;4999139;28;20221;-86
2022/04/09 13:12:50;;;;;;;9.93;9.63;;;10.00;99.90;;;;;;5001119;28;20320;-87
2022/04/09 13:18:41;;;;;;;10.40;10.10;;;10.60;99.90;;;;;;4998343;28;20426;-89
2022/04/09 13:21:25;;;;;;;10.00;9.70;;;10.70;99.90;;;;;;5001566;28;20236;-86
2022/04/09 14:38:09;;;;;;;10.50;10.20;;;10.30;99.90;;;;;;4860014;29;20253;-85
2022/04/09 14:52:02;;;;;;;10.10;9.80;;;7.30;99.90;;;;;;4895179;29;20243;-85
2022/04/09 14:57:37;;;;;;;9.97;9.67;;;7.00;99.90;;;;;;4948820;28;20336;-85
2022/04/09 15:06:41;;;;;;;10.17;9.87;;;8.80;99.90;;;;;;5036320;28;20236;-84
2022/04/09 15:19:15;;;;;;;10.40;10.10;;;9.10;99.90;;;;;;4923311;28;20232;-81
2022/04/09 15:26:29;;;;;;;10.27;9.97;;;10.30;99.90;;;;;;4980847;28;20232;-85
2022/04/09 15:40:52;;;;;;;10.70;10.40;;;10.70;99.90;;;;;;5054953;28;20295;-87
2022/04/09 15:43:46;;;;;;;10.53;10.23;;;11.10;99.90;;;;;;5045154;28;20297;-86
2022/04/09 16:12:29;;;;;;;10.87;10.57;;;11.10;99.90;;;;;;5014024;28;20267;-85
2022/04/09 16:26:26;;;;;;;10.70;10.40;;;10.80;99.90;;;;;;5080826;28;20225;-87
2022/04/09 16:29:15;;;;;;;10.37;10.07;;;10.30;99.90;;;;;;5082581;28;20226;-86
2022/04/09 16:32:02;;;;;;;10.80;10.50;;;9.70;99.90;;;;;;5063160;28;20231;-86
2022/04/09 16:34:54;;;;;;;10.33;10.03;;;8.60;99.90;;;;;;5063400;28;20337;-86
2022/04/09 16:41:49;;;;;;;10.20;9.90;;;7.30;99.90;;;;;;4976553;28;20204;-90
2022/04/09 16:45:09;;;;;;;10.20;9.90;;;7.00;99.90;;;;;;4969805;28;20238;-85
2022/04/09 17:03:15;;;;;;;10.30;10.00;;;7.90;99.90;;;;;;4996234;28;20224;-86
2022/04/09 17:09:15;;;;;;;10.50;10.20;;;7.70;99.90;;;;;;5056145;28;20222;-87